CEB740 RPLL-OERK
Flight info
| Callsign | CEB740 |
|---|---|
| Flight time | N/A |
| Altitude | 34000 |
| Route | SIRCA2R SIRCA L628 ARESI/K0891F340 L628 PCA G474 ANINA/N0480F340 G474 VEMKO/N0418F240 G474 OMURO/N0480F340 G474 BKK L301 SADUS/N0479F360 L301 AKTIV/N0475F380 L301 RAGMA N571 MENSA/N0463F340 N571 TUDIS P699 EGTAG/N0468F380 P699 NARMI N112 GETOT Q212 ASNUM |
| Aircraft | A339/H-SADE1E2E3GHIJ3J5M1P2RWXY/LB2D1 |
Departure
| Time | 2026-05-08 01:39 |
|---|---|
| Airport | Ninoy Aquino International Airport (RPLL) |
Arrival
| Time | N/A |
|---|---|
| Airport | King Khalid International Airport (OERK) |
| Time | Latitude | Longitude | Altitude | Speed | Heading |
|---|---|---|---|---|---|
| 2026-05-08 01:36 | 14.50095 | 121.00285 | 92 ft | 13 kts | 240° |
| 2026-05-08 01:36 | 14.50047 | 121.00198 | 92 ft | 13 kts | 240° |
| 2026-05-08 01:36 | 14.50000 | 121.00114 | 92 ft | 13 kts | 240° |
| 2026-05-08 01:37 | 14.49952 | 121.00029 | 92 ft | 13 kts | 240° |
| 2026-05-08 01:37 | 14.49920 | 120.99976 | 92 ft | 6 kts | 221° |
| 2026-05-08 01:37 | 14.49877 | 120.99968 | 92 ft | 7 kts | 162° |
| 2026-05-08 01:37 | 14.49829 | 120.99993 | 92 ft | 8 kts | 150° |
| 2026-05-08 01:38 | 14.49803 | 121.00030 | 92 ft | 5 kts | 93° |
| 2026-05-08 01:38 | 14.49819 | 121.00073 | 92 ft | 7 kts | 62° |
| 2026-05-08 01:38 | 14.49884 | 121.00191 | 92 ft | 34 kts | 59° |
| 2026-05-08 01:38 | 14.50113 | 121.00604 | 92 ft | 97 kts | 60° |
| 2026-05-08 01:39 | 14.50542 | 121.01376 | 93 ft | 151 kts | 61° |
| 2026-05-08 01:39 | 14.51132 | 121.02444 | 264 ft | 181 kts | 62° |
| 2026-05-08 01:39 | 14.51781 | 121.03623 | 627 ft | 197 kts | 61° |
| 2026-05-08 01:39 | 14.52477 | 121.04897 | 1075 ft | 214 kts | 62° |
| 2026-05-08 01:40 | 14.53230 | 121.06286 | 1655 ft | 228 kts | 62° |
| 2026-05-08 01:40 | 14.54000 | 121.07713 | 2272 ft | 228 kts | 62° |
| 2026-05-08 01:40 | 14.54758 | 121.09124 | 2876 ft | 227 kts | 61° |
| 2026-05-08 01:40 | 14.55509 | 121.10529 | 3479 ft | 224 kts | 61° |
| 2026-05-08 01:41 | 14.56252 | 121.11924 | 4065 ft | 221 kts | 61° |
| 2026-05-08 01:41 | 14.57179 | 121.13203 | 4391 ft | 229 kts | 33° |
| 2026-05-08 01:41 | 14.58713 | 121.13731 | 4615 ft | 244 kts | 2° |
| 2026-05-08 01:41 | 14.60440 | 121.13683 | 4868 ft | 257 kts | 358° |
| 2026-05-08 01:42 | 14.62249 | 121.13589 | 5217 ft | 265 kts | 359° |
| 2026-05-08 01:42 | 14.64086 | 121.13538 | 5757 ft | 266 kts | 360° |
| 2026-05-08 01:42 | 14.65936 | 121.13515 | 6276 ft | 267 kts | 0° |
| 2026-05-08 01:42 | 14.67751 | 121.13216 | 6730 ft | 272 kts | 337° |
| 2026-05-08 01:43 | 14.69264 | 121.12054 | 7198 ft | 277 kts | 309° |
| 2026-05-08 01:43 | 14.70073 | 121.10243 | 7714 ft | 282 kts | 281° |
| 2026-05-08 01:43 | 14.70152 | 121.08218 | 8232 ft | 284 kts | 271° |
| 2026-05-08 01:43 | 14.70111 | 121.06203 | 8735 ft | 285 kts | 271° |
| 2026-05-08 01:44 | 14.70070 | 121.04143 | 9246 ft | 286 kts | 271° |
| 2026-05-08 01:44 | 14.70040 | 121.02090 | 9748 ft | 286 kts | 271° |
| 2026-05-08 01:44 | 14.69899 | 121.00043 | 10252 ft | 288 kts | 262° |
| 2026-05-08 01:44 | 14.69412 | 120.98019 | 10623 ft | 296 kts | 253° |
| 2026-05-08 01:45 | 14.68712 | 120.95995 | 10835 ft | 308 kts | 251° |
| 2026-05-08 01:45 | 14.67942 | 120.93888 | 11052 ft | 319 kts | 251° |
| 2026-05-08 01:45 | 14.67141 | 120.91699 | 11265 ft | 331 kts | 251° |
| 2026-05-08 01:45 | 14.66327 | 120.89459 | 11473 ft | 342 kts | 251° |
| 2026-05-08 01:46 | 14.65480 | 120.87112 | 11682 ft | 353 kts | 251° |
| 2026-05-08 01:46 | 14.64619 | 120.84719 | 11965 ft | 362 kts | 251° |
| 2026-05-08 01:46 | 14.63735 | 120.82260 | 12439 ft | 364 kts | 251° |
| 2026-05-08 01:46 | 14.62856 | 120.79816 | 12931 ft | 367 kts | 251° |
| 2026-05-08 01:47 | 14.61967 | 120.77344 | 13393 ft | 370 kts | 251° |
| 2026-05-08 01:47 | 14.61075 | 120.74868 | 13846 ft | 373 kts | 251° |
| 2026-05-08 01:47 | 14.60167 | 120.72347 | 14306 ft | 376 kts | 251° |
| 2026-05-08 01:48 | 14.58337 | 120.67274 | 15210 ft | 382 kts | 251° |
| 2026-05-08 01:48 | 14.57418 | 120.64729 | 15650 ft | 385 kts | 251° |
| 2026-05-08 01:48 | 14.56483 | 120.62141 | 16090 ft | 388 kts | 251° |
| 2026-05-08 01:48 | 14.55545 | 120.59543 | 16524 ft | 391 kts | 251° |
| 2026-05-08 01:49 | 14.54590 | 120.56900 | 16961 ft | 394 kts | 251° |
| 2026-05-08 01:49 | 14.53638 | 120.54269 | 17390 ft | 397 kts | 251° |
| 2026-05-08 01:49 | 14.52662 | 120.51574 | 17825 ft | 400 kts | 251° |
| 2026-05-08 01:49 | 14.51690 | 120.48889 | 18273 ft | 402 kts | 251° |
| 2026-05-08 01:50 | 14.50720 | 120.46212 | 18697 ft | 405 kts | 251° |
| 2026-05-08 01:50 | 14.49730 | 120.43481 | 19115 ft | 408 kts | 251° |
| 2026-05-08 01:50 | 14.48736 | 120.40737 | 19530 ft | 410 kts | 251° |
| 2026-05-08 01:50 | 14.47739 | 120.37989 | 19937 ft | 413 kts | 251° |
| 2026-05-08 01:51 | 14.46813 | 120.35165 | 20339 ft | 415 kts | 256° |
| 2026-05-08 01:51 | 14.46158 | 120.32276 | 20733 ft | 417 kts | 261° |
| 2026-05-08 01:51 | 14.45781 | 120.29336 | 21116 ft | 419 kts | 266° |
| 2026-05-08 01:51 | 14.45549 | 120.26325 | 21501 ft | 421 kts | 267° |
| 2026-05-08 01:52 | 14.45345 | 120.23319 | 21878 ft | 424 kts | 267° |
| 2026-05-08 01:52 | 14.45139 | 120.20268 | 22248 ft | 426 kts | 267° |
| 2026-05-08 01:52 | 14.44932 | 120.17243 | 22601 ft | 429 kts | 267° |
| 2026-05-08 01:52 | 14.44714 | 120.14133 | 22955 ft | 431 kts | 267° |
| 2026-05-08 01:53 | 14.44498 | 120.11061 | 23296 ft | 434 kts | 267° |
| 2026-05-08 01:53 | 14.44276 | 120.07951 | 23633 ft | 436 kts | 267° |
| 2026-05-08 01:53 | 14.44052 | 120.04828 | 23962 ft | 439 kts | 267° |
| 2026-05-08 01:53 | 14.43828 | 120.01713 | 24278 ft | 441 kts | 267° |
| 2026-05-08 01:54 | 14.43600 | 119.98536 | 24596 ft | 443 kts | 267° |
| 2026-05-08 01:54 | 14.43373 | 119.95381 | 24904 ft | 445 kts | 267° |
| 2026-05-08 01:54 | 14.43145 | 119.92207 | 25204 ft | 447 kts | 267° |
| 2026-05-08 01:54 | 14.42916 | 119.89023 | 25497 ft | 449 kts | 266° |
| 2026-05-08 01:55 | 14.42683 | 119.85801 | 25786 ft | 452 kts | 266° |
| 2026-05-08 01:55 | 14.42449 | 119.82575 | 26070 ft | 453 kts | 266° |
| 2026-05-08 01:55 | 14.42214 | 119.79340 | 26350 ft | 455 kts | 266° |
| 2026-05-08 01:55 | 14.41977 | 119.76059 | 26617 ft | 457 kts | 266° |
| 2026-05-08 01:56 | 14.41741 | 119.72782 | 26881 ft | 459 kts | 266° |
| 2026-05-08 01:56 | 14.41503 | 119.69517 | 27139 ft | 461 kts | 266° |
| 2026-05-08 01:56 | 14.41260 | 119.66190 | 27396 ft | 463 kts | 266° |
| 2026-05-08 01:56 | 14.41019 | 119.62911 | 27645 ft | 465 kts | 266° |
| 2026-05-08 01:57 | 14.40773 | 119.59572 | 27891 ft | 467 kts | 266° |
| 2026-05-08 01:57 | 14.40529 | 119.56265 | 28133 ft | 468 kts | 266° |
| 2026-05-08 01:57 | 14.40279 | 119.52889 | 28373 ft | 470 kts | 266° |
| 2026-05-08 01:57 | 14.40034 | 119.49558 | 28603 ft | 471 kts | 266° |
| 2026-05-08 01:58 | 14.39785 | 119.46162 | 28830 ft | 473 kts | 266° |
| 2026-05-08 01:58 | 14.39538 | 119.42794 | 29053 ft | 475 kts | 266° |
| 2026-05-08 01:58 | 14.39290 | 119.39418 | 29274 ft | 476 kts | 266° |
| 2026-05-08 01:58 | 14.39037 | 119.36005 | 29501 ft | 478 kts | 266° |
| 2026-05-08 01:59 | 14.38783 | 119.32591 | 29769 ft | 478 kts | 266° |
| 2026-05-08 01:59 | 14.38531 | 119.29205 | 30078 ft | 477 kts | 266° |
| 2026-05-08 01:59 | 14.38276 | 119.25803 | 30382 ft | 476 kts | 266° |
| 2026-05-08 01:59 | 14.38021 | 119.22405 | 30673 ft | 475 kts | 266° |
| 2026-05-08 02:00 | 14.37766 | 119.19006 | 30946 ft | 474 kts | 266° |
| 2026-05-08 02:00 | 14.37513 | 119.15649 | 31218 ft | 474 kts | 266° |
| 2026-05-08 02:00 | 14.37260 | 119.12292 | 31476 ft | 473 kts | 266° |
| 2026-05-08 02:00 | 14.37006 | 119.08929 | 31735 ft | 472 kts | 266° |
| 2026-05-08 02:01 | 14.36750 | 119.05553 | 31996 ft | 472 kts | 266° |
| 2026-05-08 02:01 | 14.36495 | 119.02190 | 32235 ft | 471 kts | 266° |
| 2026-05-08 02:01 | 14.36236 | 118.98811 | 32439 ft | 472 kts | 266° |
| 2026-05-08 02:01 | 14.35980 | 118.95469 | 32639 ft | 472 kts | 266° |
| 2026-05-08 02:02 | 14.35722 | 118.92103 | 32866 ft | 471 kts | 266° |
| 2026-05-08 02:02 | 14.35466 | 118.88760 | 33109 ft | 470 kts | 266° |
| 2026-05-08 02:02 | 14.35207 | 118.85380 | 33366 ft | 469 kts | 266° |
| 2026-05-08 02:02 | 14.34955 | 118.82078 | 33622 ft | 467 kts | 266° |
| 2026-05-08 02:03 | 14.34700 | 118.78745 | 33867 ft | 466 kts | 266° |
| 2026-05-08 02:03 | 14.34445 | 118.75429 | 33920 ft | 466 kts | 266° |
| 2026-05-08 02:03 | 14.33931 | 118.68758 | 33926 ft | 466 kts | 266° |
| 2026-05-08 02:04 | 14.33419 | 118.62156 | 33926 ft | 466 kts | 266° |
| 2026-05-08 02:04 | 14.32900 | 118.55502 | 33927 ft | 466 kts | 266° |
| 2026-05-08 02:05 | 14.32380 | 118.48849 | 33927 ft | 466 kts | 266° |
| 2026-05-08 02:05 | 14.31859 | 118.42231 | 33927 ft | 465 kts | 266° |
| 2026-05-08 02:06 | 14.31336 | 118.35610 | 33927 ft | 466 kts | 266° |
| 2026-05-08 02:06 | 14.30819 | 118.29017 | 33927 ft | 466 kts | 266° |
| 2026-05-08 02:07 | 14.30297 | 118.22366 | 33927 ft | 466 kts | 266° |
| 2026-05-08 02:07 | 14.29772 | 118.15743 | 33927 ft | 466 kts | 266° |
| 2026-05-08 02:08 | 14.29242 | 118.09085 | 33927 ft | 466 kts | 266° |
| 2026-05-08 02:08 | 14.28711 | 118.02445 | 33927 ft | 466 kts | 266° |
| 2026-05-08 02:09 | 14.28181 | 117.95847 | 33926 ft | 466 kts | 266° |
| 2026-05-08 02:09 | 14.27650 | 117.89256 | 33927 ft | 466 kts | 266° |
| 2026-05-08 02:10 | 14.27111 | 117.82599 | 33927 ft | 466 kts | 266° |
| 2026-05-08 02:10 | 14.26572 | 117.75953 | 33927 ft | 466 kts | 266° |
| 2026-05-08 02:11 | 14.26032 | 117.69332 | 33927 ft | 466 kts | 266° |
| 2026-05-08 02:11 | 14.25492 | 117.62715 | 33927 ft | 466 kts | 266° |
| 2026-05-08 02:12 | 14.24946 | 117.56061 | 33927 ft | 466 kts | 266° |
| 2026-05-08 02:12 | 14.24401 | 117.49444 | 33927 ft | 466 kts | 266° |
| 2026-05-08 02:13 | 14.23852 | 117.42798 | 33927 ft | 466 kts | 266° |
| 2026-05-08 02:13 | 14.23303 | 117.36173 | 33927 ft | 466 kts | 266° |
| 2026-05-08 02:14 | 14.22755 | 117.29578 | 33927 ft | 466 kts | 266° |
| 2026-05-08 02:14 | 14.22198 | 117.22913 | 33927 ft | 466 kts | 266° |
| 2026-05-08 02:15 | 14.21645 | 117.16313 | 33927 ft | 466 kts | 266° |
| 2026-05-08 02:15 | 14.21088 | 117.09689 | 33926 ft | 466 kts | 266° |
| 2026-05-08 02:16 | 14.20524 | 117.03032 | 33926 ft | 468 kts | 266° |
| 2026-05-08 02:16 | 14.19957 | 116.96355 | 33926 ft | 471 kts | 266° |
| 2026-05-08 02:17 | 14.19391 | 116.89658 | 33926 ft | 474 kts | 266° |
| 2026-05-08 02:17 | 14.18821 | 116.82881 | 33926 ft | 477 kts | 266° |
| 2026-05-08 02:18 | 14.18241 | 116.76070 | 33927 ft | 477 kts | 266° |
| 2026-05-08 02:18 | 14.17661 | 116.69297 | 33927 ft | 477 kts | 266° |
| 2026-05-08 02:19 | 14.17078 | 116.62508 | 33927 ft | 477 kts | 266° |
| 2026-05-08 02:19 | 14.16493 | 116.55723 | 33927 ft | 477 kts | 266° |
| 2026-05-08 02:20 | 14.15905 | 116.48936 | 33927 ft | 477 kts | 266° |
| 2026-05-08 02:20 | 14.15315 | 116.42139 | 33927 ft | 477 kts | 266° |
| 2026-05-08 02:21 | 14.14723 | 116.35342 | 33927 ft | 477 kts | 266° |
| 2026-05-08 02:21 | 14.14128 | 116.28543 | 33927 ft | 477 kts | 266° |
| 2026-05-08 02:22 | 14.13534 | 116.21776 | 33927 ft | 477 kts | 266° |
| 2026-05-08 02:22 | 14.12939 | 116.15009 | 33927 ft | 477 kts | 266° |
| 2026-05-08 02:23 | 14.12337 | 116.08194 | 33927 ft | 477 kts | 266° |
| 2026-05-08 02:23 | 14.11735 | 116.01402 | 33927 ft | 477 kts | 266° |
| 2026-05-08 02:24 | 14.11133 | 115.94617 | 33927 ft | 477 kts | 266° |
| 2026-05-08 02:24 | 14.10531 | 115.87862 | 33927 ft | 477 kts | 266° |
| 2026-05-08 02:25 | 14.09925 | 115.81078 | 33927 ft | 477 kts | 266° |
| 2026-05-08 02:25 | 14.09316 | 115.74294 | 33927 ft | 477 kts | 266° |
| 2026-05-08 02:26 | 14.08703 | 115.67480 | 33927 ft | 477 kts | 266° |
| 2026-05-08 02:26 | 14.08094 | 115.60730 | 33927 ft | 477 kts | 266° |
| 2026-05-08 02:27 | 14.07478 | 115.53931 | 33927 ft | 477 kts | 266° |
| 2026-05-08 02:27 | 14.06859 | 115.47120 | 33927 ft | 477 kts | 266° |
| 2026-05-08 02:28 | 14.06244 | 115.40372 | 33927 ft | 477 kts | 266° |
| 2026-05-08 02:28 | 14.05623 | 115.33567 | 33927 ft | 477 kts | 266° |
| 2026-05-08 02:29 | 14.05002 | 115.26802 | 33927 ft | 477 kts | 266° |
| 2026-05-08 02:29 | 14.04375 | 115.19990 | 33927 ft | 477 kts | 266° |
| 2026-05-08 02:30 | 14.03751 | 115.13202 | 33926 ft | 479 kts | 265° |
| 2026-05-08 02:30 | 14.03123 | 115.06386 | 33926 ft | 481 kts | 265° |
| 2026-05-08 02:31 | 14.02491 | 114.99562 | 33926 ft | 481 kts | 264° |
| 2026-05-08 02:31 | 14.01853 | 114.92725 | 33927 ft | 481 kts | 264° |
| 2026-05-08 02:32 | 14.01211 | 114.85896 | 33927 ft | 481 kts | 264° |
| 2026-05-08 02:32 | 14.00569 | 114.79067 | 33927 ft | 481 kts | 264° |
| 2026-05-08 02:33 | 13.99928 | 114.72257 | 33927 ft | 481 kts | 264° |
| 2026-05-08 02:33 | 13.99282 | 114.65411 | 33927 ft | 481 kts | 264° |
| 2026-05-08 02:34 | 13.98635 | 114.58587 | 33927 ft | 481 kts | 264° |
| 2026-05-08 02:34 | 13.97982 | 114.51726 | 33927 ft | 481 kts | 264° |
| 2026-05-08 02:35 | 13.97424 | 114.44881 | 33927 ft | 481 kts | 268° |
| 2026-05-08 02:35 | 13.97379 | 114.38050 | 33927 ft | 481 kts | 270° |
| 2026-05-08 02:36 | 13.97409 | 114.34595 | 33927 ft | 481 kts | 270° |